Time;durP1;ratioP1;P1;durP2;ratioP2;P2;SDS_P1;SDS_P2;PMS_P1;PMS_P2;Temp;Humidity;BMP_temperature;BMP_pressure;BME280_temperature;BME280_humidity;BME280_pressure;Samples;Min_cycle;Max_cycle;Signal;HPM_P1;HPM_P2
2022/02/14 00:00:13;;;;;;;13.13;4.32;;;8.20;99.90;;;;;;5024863;28;20127;-79
2022/02/14 00:02:40;;;;;;;6.47;2.45;;;8.20;99.90;;;;;;5039965;28;20106;-80
2022/02/14 00:05:06;;;;;;;6.53;2.67;;;8.20;99.90;;;;;;5030312;28;20037;-79
2022/02/14 00:07:32;;;;;;;6.93;2.90;;;8.30;99.90;;;;;;5031218;28;20049;-78
2022/02/14 00:09:58;;;;;;;4.38;1.80;;;8.30;99.90;;;;;;5037777;28;20041;-79
2022/02/14 00:12:24;;;;;;;4.60;2.42;;;8.30;99.90;;;;;;5033932;28;20055;-79
2022/02/14 00:14:50;;;;;;;8.70;3.17;;;8.30;99.90;;;;;;5029416;28;20134;-80
2022/02/14 00:17:16;;;;;;;7.40;3.33;;;8.30;99.90;;;;;;5035853;28;20076;-80
2022/02/14 00:19:42;;;;;;;6.78;2.50;;;8.30;99.90;;;;;;5043850;28;20049;-81
2022/02/14 00:22:08;;;;;;;8.10;2.78;;;8.20;99.90;;;;;;5025073;28;20073;-78
2022/02/14 00:24:33;;;;;;;8.68;2.72;;;8.30;99.90;;;;;;5010674;28;20042;-80
2022/02/14 00:26:59;;;;;;;4.97;1.52;;;8.20;99.90;;;;;;5047472;28;20068;-80
2022/02/14 00:29:25;;;;;;;14.10;3.50;;;8.20;99.90;;;;;;5028399;28;20052;-80
2022/02/14 00:31:51;;;;;;;8.82;3.17;;;8.30;99.90;;;;;;5025462;28;20041;-80
2022/02/14 00:34:17;;;;;;;6.65;2.40;;;8.20;99.90;;;;;;5007404;28;20053;-80
2022/02/14 00:36:43;;;;;;;8.05;2.35;;;8.30;99.90;;;;;;5044859;28;20045;-81
2022/02/14 00:39:10;;;;;;;6.78;2.75;;;8.30;99.90;;;;;;5030222;28;20033;-80
2022/02/14 00:41:35;;;;;;;12.95;4.03;;;8.40;99.90;;;;;;5028267;28;20045;-79
2022/02/14 00:44:01;;;;;;;7.70;2.17;;;8.40;99.90;;;;;;5030315;28;20051;-79
2022/02/14 00:46:27;;;;;;;10.20;2.63;;;8.40;99.90;;;;;;5028223;28;20514;-81
2022/02/14 00:48:53;;;;;;;7.22;2.03;;;8.50;99.90;;;;;;5013399;28;20086;-80
2022/02/14 00:51:18;;;;;;;14.20;2.60;;;8.50;99.90;;;;;;5045337;28;20110;-79
2022/02/14 00:53:44;;;;;;;6.95;2.85;;;8.60;99.90;;;;;;5042293;28;20041;-79
2022/02/14 00:56:10;;;;;;;8.50;2.67;;;8.60;99.90;;;;;;5004330;28;20150;-80
2022/02/14 00:58:35;;;;;;;5.53;1.88;;;8.70;99.90;;;;;;5027013;28;20072;-81
2022/02/14 01:01:01;;;;;;;6.93;2.35;;;8.70;99.90;;;;;;5014870;28;20454;-80
2022/02/14 01:03:27;;;;;;;9.50;3.20;;;8.70;99.90;;;;;;5043653;28;20049;-80
2022/02/14 01:05:53;;;;;;;4.93;2.33;;;8.80;99.90;;;;;;5045130;28;20070;-78
2022/02/14 01:08:19;;;;;;;8.38;2.63;;;8.80;99.90;;;;;;5042125;28;20573;-80
2022/02/14 01:10:44;;;;;;;4.20;2.10;;;8.80;99.90;;;;;;5016794;28;20044;-80
2022/02/14 01:13:10;;;;;;;5.15;2.33;;;8.80;99.90;;;;;;5026027;28;20400;-80
2022/02/14 01:15:36;;;;;;;11.23;2.80;;;8.80;99.90;;;;;;5003642;28;20039;-80
2022/02/14 01:18:01;;;;;;;14.85;3.05;;;8.90;99.90;;;;;;5028228;28;20553;-80
2022/02/14 01:20:27;;;;;;;6.82;2.85;;;8.90;99.90;;;;;;5016853;28;20056;-82
2022/02/14 01:22:53;;;;;;;8.27;3.03;;;8.90;99.90;;;;;;5028133;28;20090;-80
2022/02/14 01:25:19;;;;;;;11.40;3.60;;;8.90;99.90;;;;;;5016774;28;20041;-80
2022/02/14 01:27:45;;;;;;;9.40;2.30;;;8.90;99.90;;;;;;5032527;28;20057;-80
2022/02/14 01:30:11;;;;;;;13.45;2.78;;;8.90;99.90;;;;;;5008463;28;20042;-81
2022/02/14 01:32:38;;;;;;;8.73;2.75;;;8.90;99.90;;;;;;5007434;28;20120;-82
2022/02/14 01:35:05;;;;;;;4.45;2.63;;;9.00;99.90;;;;;;5028377;28;20049;-80
2022/02/14 01:37:32;;;;;;;10.57;3.03;;;8.90;99.90;;;;;;5023878;28;20052;-80
2022/02/14 01:39:59;;;;;;;2.92;2.15;;;9.00;99.90;;;;;;5022985;28;20041;-80
2022/02/14 01:42:25;;;;;;;10.68;2.92;;;9.00;99.90;;;;;;5023437;28;20053;-82
2022/02/14 01:44:53;;;;;;;7.47;2.40;;;9.00;99.90;;;;;;5023255;28;20616;-82
2022/02/14 01:47:24;;;;;;;6.75;2.35;;;9.00;99.90;;;;;;5028004;28;20040;-81
2022/02/14 01:49:51;;;;;;;6.38;2.63;;;9.00;99.90;;;;;;5040856;28;20045;-80
2022/02/14 01:52:17;;;;;;;10.02;2.55;;;8.90;99.90;;;;;;5012269;28;20051;-81
2022/02/14 01:54:46;;;;;;;7.95;2.63;;;8.90;99.90;;;;;;5027178;28;20061;-82
2022/02/14 01:57:14;;;;;;;12.50;2.90;;;8.90;99.90;;;;;;5028774;28;20055;-81
2022/02/14 01:59:40;;;;;;;6.65;3.38;;;8.80;99.90;;;;;;5033624;28;20508;-82
2022/02/14 02:02:07;;;;;;;10.20;2.40;;;8.70;99.90;;;;;;5023032;28;20194;-79
2022/02/14 02:04:34;;;;;;;8.50;2.38;;;8.70;99.90;;;;;;5015152;28;20098;-81
2022/02/14 02:07:02;;;;;;;8.95;2.92;;;8.70;99.90;;;;;;5030578;28;20041;-81
2022/02/14 02:09:27;;;;;;;4.97;2.38;;;8.70;99.90;;;;;;5008475;28;20128;-79
2022/02/14 02:14:37;;;;;;;5.93;2.30;;;8.60;99.90;;;;;;5033517;28;20041;-81
2022/02/14 02:17:03;;;;;;;6.00;2.17;;;8.50;99.90;;;;;;5011215;28;20045;-81
2022/02/14 02:19:29;;;;;;;6.88;2.42;;;8.50;99.90;;;;;;5018240;28;20404;-80
2022/02/14 02:21:55;;;;;;;7.63;2.60;;;8.50;99.90;;;;;;4995195;28;20045;-80
2022/02/14 02:24:23;;;;;;;9.52;2.50;;;8.50;99.90;;;;;;4996471;28;20037;-79
2022/02/14 02:26:56;;;;;;;7.47;2.10;;;8.50;99.90;;;;;;5038987;28;20042;-80
2022/02/14 02:29:23;;;;;;;9.15;3.30;;;8.50;99.90;;;;;;5027599;28;20563;-79
2022/02/14 02:31:50;;;;;;;8.10;2.80;;;8.50;99.90;;;;;;5021369;28;20041;-79
2022/02/14 02:34:16;;;;;;;5.75;3.00;;;8.50;99.90;;;;;;5031054;28;20057;-81
2022/02/14 02:36:50;;;;;;;10.80;2.13;;;8.50;99.90;;;;;;5019762;28;20060;-80
2022/02/14 02:39:16;;;;;;;10.60;2.60;;;8.50;99.90;;;;;;5011738;28;20053;-80
2022/02/14 02:41:42;;;;;;;11.10;3.08;;;8.50;99.90;;;;;;5027704;28;20045;-81
2022/02/14 02:44:09;;;;;;;6.10;2.60;;;8.60;99.90;;;;;;5028756;28;20046;-80
2022/02/14 02:46:34;;;;;;;8.77;2.63;;;8.70;99.90;;;;;;5015110;28;20052;-82
2022/02/14 02:49:16;;;;;;;10.85;2.63;;;8.80;99.90;;;;;;5021285;28;20041;-79
2022/02/14 02:51:47;;;;;;;7.05;1.88;;;8.80;99.90;;;;;;5029397;28;20496;-80
2022/02/14 02:54:13;;;;;;;7.25;2.40;;;8.90;99.90;;;;;;5022486;28;20442;-82
2022/02/14 02:56:42;;;;;;;7.57;2.45;;;9.00;99.90;;;;;;5027930;28;20067;-81
2022/02/14 02:59:08;;;;;;;4.80;2.25;;;9.00;99.90;;;;;;5028405;28;20037;-80
2022/02/14 03:01:34;;;;;;;4.00;1.95;;;9.00;99.90;;;;;;5025488;28;20040;-80
2022/02/14 03:04:05;;;;;;;4.72;1.90;;;9.00;99.90;;;;;;5017624;28;20390;-81
2022/02/14 03:06:31;;;;;;;5.43;1.90;;;9.00;99.90;;;;;;4995694;28;20530;-82
2022/02/14 03:08:57;;;;;;;11.85;2.42;;;9.10;99.90;;;;;;5028661;28;20048;-81
2022/02/14 03:11:24;;;;;;;7.57;2.65;;;9.10;99.90;;;;;;5012477;28;20134;-81
2022/02/14 03:13:50;;;;;;;4.20;2.22;;;9.10;99.90;;;;;;5010600;28;20369;-81
2022/02/14 03:16:16;;;;;;;3.70;1.75;;;9.10;99.90;;;;;;5027830;28;20049;-80
2022/02/14 03:18:42;;;;;;;6.45;1.70;;;9.20;99.90;;;;;;5039188;28;20033;-81
2022/02/14 03:21:09;;;;;;;6.88;1.40;;;9.30;99.90;;;;;;5030381;28;20044;-81
2022/02/14 03:23:35;;;;;;;7.45;2.28;;;9.30;99.90;;;;;;5037618;28;20083;-82
2022/02/14 03:26:02;;;;;;;5.90;2.30;;;9.30;99.90;;;;;;5023855;28;20507;-80
2022/02/14 03:28:27;;;;;;;4.38;2.33;;;9.20;99.90;;;;;;5034497;28;20045;-82
2022/02/14 03:30:54;;;;;;;6.03;2.75;;;9.30;99.90;;;;;;5029741;28;20036;-81
2022/02/14 03:33:20;;;;;;;5.68;2.08;;;9.20;99.90;;;;;;5031045;28;20471;-80
2022/02/14 03:35:46;;;;;;;7.00;2.10;;;9.20;99.90;;;;;;5030396;28;20068;-80
2022/02/14 03:38:12;;;;;;;6.85;1.60;;;9.20;99.90;;;;;;5037420;28;20045;-81
2022/02/14 03:40:39;;;;;;;3.25;1.52;;;9.20;99.90;;;;;;5034415;28;20045;-82
2022/02/14 03:43:10;;;;;;;5.63;2.17;;;9.20;99.90;;;;;;5010820;28;20407;-80
2022/02/14 03:45:36;;;;;;;;;;;9.20;99.90;;;;;;5029070;28;20059;-82
2022/02/14 03:48:02;;;;;;;4.70;1.85;;;9.20;99.90;;;;;;5028361;28;20288;-81
2022/02/14 03:50:28;;;;;;;12.75;1.98;;;9.20;99.90;;;;;;5018974;28;20045;-81
2022/02/14 03:52:54;;;;;;;4.18;2.00;;;9.20;99.90;;;;;;5050240;28;20519;-80
2022/02/14 03:55:21;;;;;;;4.20;1.77;;;9.20;99.90;;;;;;5027992;28;20069;-81
2022/02/14 03:57:47;;;;;;;4.85;1.70;;;9.20;99.90;;;;;;5010955;28;20064;-81
2022/02/14 04:00:14;;;;;;;12.38;2.00;;;9.20;99.90;;;;;;5027256;28;20029;-80
2022/02/14 04:02:41;;;;;;;10.25;2.42;;;9.10;99.90;;;;;;5023149;28;20040;-81
2022/02/14 04:05:09;;;;;;;8.57;2.35;;;9.10;99.90;;;;;;5010176;28;20261;-81
2022/02/14 04:07:35;;;;;;;6.88;1.63;;;9.10;99.90;;;;;;5027466;28;20040;-80
2022/02/14 04:10:01;;;;;;;2.30;1.23;;;9.10;99.90;;;;;;5031209;28;20049;-80
2022/02/14 04:12:26;;;;;;;8.10;1.88;;;9.20;99.90;;;;;;5030153;28;20341;-80
2022/02/14 04:14:52;;;;;;;9.27;2.17;;;9.30;99.90;;;;;;5010067;28;20030;-81
2022/02/14 04:17:18;;;;;;;7.53;2.40;;;9.30;99.90;;;;;;5009311;28;20053;-80
2022/02/14 04:19:43;;;;;;;5.47;1.67;;;9.30;99.90;;;;;;5013759;28;20048;-81
2022/02/14 04:22:09;;;;;;;11.20;2.00;;;9.20;99.90;;;;;;5028983;28;20470;-80
2022/02/14 04:24:35;;;;;;;4.78;1.70;;;9.20;99.90;;;;;;5029738;28;20045;-81
2022/02/14 04:27:01;;;;;;;11.02;1.98;;;9.20;99.90;;;;;;5028660;28;20048;-82
2022/02/14 04:29:27;;;;;;;6.22;2.75;;;9.10;99.90;;;;;;5030499;28;20135;-81
2022/02/14 04:31:52;;;;;;;4.20;1.65;;;9.10;99.90;;;;;;5027568;28;20479;-81
2022/02/14 04:34:21;;;;;;;3.95;1.85;;;9.00;99.90;;;;;;5029689;28;20056;-82
2022/02/14 04:36:48;;;;;;;5.78;2.05;;;9.00;99.90;;;;;;5028103;28;20132;-81
2022/02/14 04:39:14;;;;;;;4.68;1.85;;;9.00;99.90;;;;;;5045262;28;20037;-82
2022/02/14 04:41:40;;;;;;;3.90;2.17;;;9.00;99.90;;;;;;5029598;28;20127;-80
2022/02/14 04:44:06;;;;;;;1.60;0.80;;;8.90;99.90;;;;;;5011803;28;20041;-80
2022/02/14 04:46:32;;;;;;;4.20;1.45;;;9.00;99.90;;;;;;5029455;28;20049;-81
2022/02/14 04:48:58;;;;;;;8.27;2.13;;;9.10;99.90;;;;;;4995223;28;20091;-82
2022/02/14 04:51:25;;;;;;;11.70;1.92;;;9.10;99.90;;;;;;5046740;28;20045;-80
2022/02/14 04:53:52;;;;;;;8.63;2.25;;;9.20;99.90;;;;;;5028424;28;20045;-81
2022/02/14 04:56:18;;;;;;;3.30;1.45;;;9.30;99.90;;;;;;5028328;28;20060;-81
2022/02/14 04:58:44;;;;;;;3.78;1.42;;;9.30;99.90;;;;;;5011925;28;20076;-80
2022/02/14 05:01:10;;;;;;;7.35;2.47;;;9.30;99.90;;;;;;5024847;28;20553;-80
2022/02/14 05:03:36;;;;;;;3.65;1.20;;;9.30;99.90;;;;;;5002294;28;20049;-81
2022/02/14 05:06:02;;;;;;;4.95;1.88;;;9.30;99.90;;;;;;5027669;28;20110;-82
2022/02/14 05:08:28;;;;;;;11.98;2.42;;;9.20;99.90;;;;;;5029454;28;20118;-82
2022/02/14 05:10:54;;;;;;;10.10;1.95;;;9.20;99.90;;;;;;5008156;28;20496;-80
2022/02/14 05:13:20;;;;;;;6.40;2.03;;;9.20;99.90;;;;;;5018797;28;20049;-80
2022/02/14 05:15:46;;;;;;;13.80;2.63;;;9.20;99.90;;;;;;5013781;28;20175;-80
2022/02/14 05:18:12;;;;;;;5.68;1.95;;;9.30;99.90;;;;;;5018096;28;20502;-81
2022/02/14 05:20:38;;;;;;;7.18;2.13;;;9.30;99.90;;;;;;5016498;28;20411;-82
2022/02/14 05:23:03;;;;;;;6.88;1.88;;;9.40;99.90;;;;;;5007643;28;20045;-80
2022/02/14 05:25:29;;;;;;;5.22;1.33;;;9.40;99.90;;;;;;5009864;28;20542;-82
2022/02/14 05:27:55;;;;;;;5.78;1.63;;;9.30;99.90;;;;;;5009762;28;20468;-81
2022/02/14 05:30:21;;;;;;;10.10;2.15;;;9.30;99.90;;;;;;5009966;28;20045;-80
2022/02/14 05:32:47;;;;;;;9.55;2.28;;;9.30;99.90;;;;;;5026013;28;20119;-81
2022/02/14 05:35:13;;;;;;;5.22;1.70;;;9.40;99.90;;;;;;5008710;28;20492;-81
2022/02/14 05:37:39;;;;;;;5.28;1.85;;;9.40;99.90;;;;;;5006638;28;20320;-81
2022/02/14 05:40:06;;;;;;;14.95;2.38;;;9.40;99.90;;;;;;5018308;28;20115;-80
2022/02/14 05:42:32;;;;;;;8.70;2.00;;;9.40;99.90;;;;;;5009305;28;20046;-82
2022/02/14 05:44:57;;;;;;;6.80;1.98;;;9.50;99.90;;;;;;5007424;28;20048;-81
2022/02/14 05:47:23;;;;;;;7.35;2.05;;;9.50;99.90;;;;;;5035047;28;20048;-81
2022/02/14 05:49:49;;;;;;;4.80;1.17;;;9.50;99.90;;;;;;5025081;28;20079;-79
2022/02/14 05:52:15;;;;;;;7.40;1.33;;;9.50;99.90;;;;;;5025584;28;20045;-81
2022/02/14 05:54:41;;;;;;;8.13;1.88;;;9.50;99.90;;;;;;5006697;28;20503;-81
2022/02/14 05:57:07;;;;;;;4.63;1.90;;;9.50;99.90;;;;;;5037339;28;20506;-81
2022/02/14 05:59:33;;;;;;;6.50;1.80;;;9.60;99.90;;;;;;5004559;28;20041;-83
2022/02/14 06:02:01;;;;;;;4.63;1.60;;;9.60;99.90;;;;;;5031680;28;20041;-81
2022/02/14 06:04:28;;;;;;;12.95;2.05;;;9.70;99.90;;;;;;5025963;28;20046;-81
2022/02/14 06:06:54;;;;;;;10.15;2.75;;;9.60;99.90;;;;;;5020574;28;20503;-81
2022/02/14 06:09:21;;;;;;;5.32;3.00;;;9.70;99.90;;;;;;5000867;28;20079;-80
2022/02/14 06:11:47;;;;;;;8.35;1.83;;;9.70;99.90;;;;;;5017347;28;20077;-81
2022/02/14 06:14:12;;;;;;;5.93;2.13;;;9.60;99.90;;;;;;5007978;28;20476;-81
2022/02/14 06:16:38;;;;;;;4.85;2.08;;;9.60;99.90;;;;;;5017579;28;20064;-80
2022/02/14 06:19:04;;;;;;;6.75;1.40;;;9.70;99.90;;;;;;5026304;28;20053;-81
2022/02/14 06:21:30;;;;;;;7.72;1.98;;;9.70;99.90;;;;;;5015451;28;20407;-80
2022/02/14 06:23:56;;;;;;;7.72;2.03;;;9.70;99.90;;;;;;5030941;28;20049;-82
2022/02/14 06:26:22;;;;;;;2.75;1.27;;;9.70;99.90;;;;;;5011181;28;20109;-80
2022/02/14 06:28:47;;;;;;;4.40;1.98;;;9.70;99.90;;;;;;5021161;28;20079;-82
2022/02/14 06:31:13;;;;;;;4.95;1.88;;;9.70;99.90;;;;;;5029531;28;20072;-80
2022/02/14 06:33:39;;;;;;;6.95;1.88;;;9.70;99.90;;;;;;5000517;28;20507;-81
2022/02/14 06:36:06;;;;;;;5.93;1.50;;;9.70;99.90;;;;;;5028674;28;20075;-80
2022/02/14 06:38:33;;;;;;;7.72;1.65;;;9.70;99.90;;;;;;5032753;28;20069;-82
2022/02/14 06:40:59;;;;;;;11.35;1.92;;;9.70;99.90;;;;;;5007304;28;20047;-82
2022/02/14 06:43:25;;;;;;;3.53;1.35;;;9.80;99.90;;;;;;4991708;28;20042;-82
2022/02/14 06:45:51;;;;;;;1.50;1.20;;;9.80;99.90;;;;;;5017780;28;20041;-81
2022/02/14 06:48:17;;;;;;;2.80;1.27;;;9.80;99.90;;;;;;5010360;28;20041;-81
2022/02/14 06:50:43;;;;;;;5.53;1.20;;;9.80;99.90;;;;;;5024738;28;20041;-81
2022/02/14 06:53:08;;;;;;;4.43;1.05;;;9.80;99.90;;;;;;5021396;28;20045;-83
2022/02/14 06:55:34;;;;;;;1.75;1.17;;;9.80;99.90;;;;;;5015845;28;20068;-82
2022/02/14 06:58:00;;;;;;;7.82;1.77;;;9.80;99.90;;;;;;5026079;28;20332;-82
2022/02/14 07:00:26;;;;;;;5.05;1.35;;;9.70;99.90;;;;;;5032884;28;20152;-80
2022/02/14 07:02:52;;;;;;;3.15;1.73;;;9.80;99.90;;;;;;5010434;28;20457;-82
2022/02/14 07:05:21;;;;;;;6.72;1.60;;;9.70;99.90;;;;;;5025945;28;20049;-81
2022/02/14 07:07:48;;;;;;;2.95;1.38;;;9.80;99.90;;;;;;5023641;28;20513;-82
2022/02/14 07:10:15;;;;;;;11.00;1.58;;;9.80;99.90;;;;;;5023700;28;20377;-83
2022/02/14 07:12:41;;;;;;;2.22;1.25;;;9.80;99.90;;;;;;5045003;28;20042;-80
2022/02/14 07:15:09;;;;;;;3.22;1.40;;;9.80;99.90;;;;;;5026674;28;20124;-80
2022/02/14 07:17:35;;;;;;;5.90;1.55;;;9.80;99.90;;;;;;5033024;28;20181;-80
2022/02/14 07:20:01;;;;;;;4.97;1.40;;;9.80;99.90;;;;;;5009739;28;20030;-80
2022/02/14 07:22:27;;;;;;;2.17;1.25;;;9.80;99.90;;;;;;5025675;28;20048;-81
2022/02/14 07:24:53;;;;;;;7.68;1.58;;;9.90;99.90;;;;;;5032856;28;20045;-81
2022/02/14 07:27:19;;;;;;;9.13;2.78;;;9.90;99.90;;;;;;5030842;28;20134;-80
2022/02/14 07:29:44;;;;;;;4.78;1.33;;;9.90;99.90;;;;;;5028992;28;20052;-81
2022/02/14 07:32:10;;;;;;;4.07;1.55;;;9.80;99.90;;;;;;5043041;28;20483;-80
2022/02/14 07:34:36;;;;;;;6.88;1.23;;;9.90;99.90;;;;;;5031709;28;20063;-79
2022/02/14 07:37:02;;;;;;;8.80;1.63;;;9.90;99.90;;;;;;5037684;28;20040;-81
2022/02/14 07:39:34;;;;;;;9.02;2.75;;;9.90;99.90;;;;;;5017043;28;20037;-80
2022/02/14 07:42:01;;;;;;;2.90;1.33;;;9.90;99.90;;;;;;5021582;28;20046;-80
2022/02/14 07:44:27;;;;;;;4.78;1.45;;;9.90;99.90;;;;;;5034702;28;20574;-80
2022/02/14 07:46:53;;;;;;;3.33;1.75;;;9.90;99.90;;;;;;5049521;28;20055;-81
2022/02/14 07:49:20;;;;;;;9.15;1.90;;;9.90;99.90;;;;;;5050541;28;20044;-81
2022/02/14 07:51:46;;;;;;;4.65;1.65;;;9.90;99.90;;;;;;5017765;28;20036;-79
2022/02/14 07:54:13;;;;;;;5.18;1.98;;;9.90;99.90;;;;;;5032149;28;20045;-81
2022/02/14 07:56:39;;;;;;;7.70;1.85;;;10.00;99.90;;;;;;5049276;28;20040;-80
2022/02/14 07:59:05;;;;;;;2.03;0.90;;;10.00;99.90;;;;;;5020673;28;20044;-81
2022/02/14 08:01:31;;;;;;;5.68;1.98;;;10.00;99.90;;;;;;5022147;28;20053;-79
2022/02/14 08:03:57;;;;;;;3.80;1.65;;;10.00;99.90;;;;;;5027446;28;20070;-78
2022/02/14 08:06:23;;;;;;;2.10;1.70;;;10.10;99.90;;;;;;5039976;28;20496;-80
2022/02/14 08:08:50;;;;;;;4.60;1.48;;;10.10;99.90;;;;;;5047753;28;20036;-81
2022/02/14 08:11:17;;;;;;;6.97;1.52;;;10.10;99.90;;;;;;5043806;28;20127;-81
2022/02/14 08:13:43;;;;;;;3.83;0.68;;;10.10;99.90;;;;;;5050391;28;20044;-80
2022/02/14 08:16:09;;;;;;;1.90;1.33;;;10.10;99.90;;;;;;5027949;28;20119;-79
2022/02/14 08:18:36;;;;;;;2.08;1.40;;;10.10;99.90;;;;;;5001622;28;20816;-81
2022/02/14 08:21:02;;;;;;;5.60;1.73;;;10.10;99.90;;;;;;5045654;28;20043;-79
2022/02/14 08:23:29;;;;;;;3.60;1.50;;;10.10;99.90;;;;;;5010893;28;20115;-81
2022/02/14 08:25:55;;;;;;;2.13;1.42;;;10.10;99.90;;;;;;5048914;28;20066;-79
2022/02/14 08:28:22;;;;;;;2.70;1.40;;;10.20;99.90;;;;;;5033319;28;20047;-81
2022/02/14 08:30:50;;;;;;;3.33;1.58;;;10.20;99.90;;;;;;5033088;28;20072;-80
2022/02/14 08:33:16;;;;;;;3.25;1.25;;;10.20;99.90;;;;;;5030796;28;20117;-81
2022/02/14 08:35:42;;;;;;;4.00;1.48;;;10.20;99.90;;;;;;5039108;28;20076;-79
2022/02/14 08:38:08;;;;;;;5.68;1.27;;;10.30;99.90;;;;;;5037281;28;20077;-79
2022/02/14 08:40:34;;;;;;;3.75;1.50;;;10.30;99.90;;;;;;5049273;28;20504;-79
2022/02/14 08:43:01;;;;;;;5.93;1.55;;;10.30;99.90;;;;;;5047925;28;20487;-80
2022/02/14 08:45:28;;;;;;;2.33;1.35;;;10.20;99.90;;;;;;5032783;28;20047;-79
2022/02/14 08:47:54;;;;;;;2.13;1.17;;;10.20;99.90;;;;;;5049716;28;20434;-81
2022/02/14 08:50:20;;;;;;;1.25;0.90;;;10.20;99.90;;;;;;5042723;28;20044;-80
2022/02/14 08:52:46;;;;;;;2.85;1.05;;;10.20;99.90;;;;;;5049499;28;20036;-80
2022/02/14 08:55:13;;;;;;;3.53;1.95;;;10.20;99.90;;;;;;5031402;28;20048;-76
2022/02/14 08:57:39;;;;;;;9.10;2.17;;;10.20;99.90;;;;;;5033473;28;20510;-79
2022/02/14 09:00:07;;;;;;;4.82;1.20;;;10.10;99.90;;;;;;5014552;28;20095;-80
2022/02/14 09:02:33;;;;;;;5.28;1.25;;;10.10;99.90;;;;;;5031485;28;20048;-81
2022/02/14 09:04:59;;;;;;;5.88;1.27;;;10.10;99.90;;;;;;5023385;28;20457;-81
2022/02/14 09:07:25;;;;;;;2.17;1.00;;;10.10;99.90;;;;;;5031884;28;20036;-81
2022/02/14 09:09:51;;;;;;;8.48;1.70;;;10.10;99.90;;;;;;5012674;28;20048;-80
2022/02/14 09:12:17;;;;;;;5.93;1.20;;;10.10;99.90;;;;;;5008320;28;20083;-81
2022/02/14 09:14:43;;;;;;;4.10;1.80;;;10.20;99.90;;;;;;5019859;28;20049;-80
2022/02/14 09:17:09;;;;;;;4.78;1.63;;;10.10;99.90;;;;;;5034175;28;20057;-81
2022/02/14 09:19:35;;;;;;;2.75;1.52;;;10.20;99.90;;;;;;5031752;28;20036;-79
2022/02/14 09:22:03;;;;;;;5.15;1.55;;;10.20;99.90;;;;;;4994795;28;20053;-79
2022/02/14 09:24:30;;;;;;;9.57;1.60;;;10.20;99.90;;;;;;5014710;28;20456;-82
2022/02/14 09:26:56;;;;;;;9.25;1.20;;;10.10;99.90;;;;;;5022817;28;20083;-79
2022/02/14 09:29:23;;;;;;;4.32;1.15;;;10.10;99.90;;;;;;5010399;28;20064;-80
2022/02/14 09:31:49;;;;;;;5.57;1.80;;;10.10;99.90;;;;;;5021207;28;20251;-81
2022/02/14 09:34:15;;;;;;;4.85;1.60;;;10.10;99.90;;;;;;5029509;28;20487;-80
2022/02/14 09:36:40;;;;;;;5.07;1.67;;;10.10;99.90;;;;;;5031927;28;20044;-80
2022/02/14 09:39:08;;;;;;;1.58;1.27;;;10.10;99.90;;;;;;5003198;28;20407;-79
2022/02/14 09:41:36;;;;;;;1.40;1.25;;;10.10;99.90;;;;;;5048918;28;20076;-80
2022/02/14 09:44:04;;;;;;;5.45;1.73;;;10.00;99.90;;;;;;5030810;28;20037;-79
2022/02/14 09:46:32;;;;;;;6.25;1.98;;;9.90;99.90;;;;;;5030986;28;20140;-81
2022/02/14 09:49:00;;;;;;;3.75;1.00;;;9.70;99.90;;;;;;5032098;28;20441;-81
2022/02/14 09:51:26;;;;;;;3.47;1.60;;;9.50;99.90;;;;;;5046249;28;20045;-79
2022/02/14 09:53:52;;;;;;;5.13;1.70;;;9.40;99.90;;;;;;5045422;28;20051;-78
2022/02/14 09:56:18;;;;;;;6.65;1.95;;;9.20;99.90;;;;;;5004264;28;20099;-78
2022/02/14 09:58:43;;;;;;;2.97;1.52;;;9.20;99.90;;;;;;5008019;28;20490;-77
2022/02/14 10:01:09;;;;;;;3.20;1.67;;;9.10;99.90;;;;;;5026701;28;20071;-76
2022/02/14 10:03:55;;;;;;;2.47;0.88;;;9.00;99.90;;;;;;5046757;28;20351;-76
2022/02/14 10:06:25;;;;;;;1.08;0.93;;;9.00;99.90;;;;;;5047189;28;20044;-76
2022/02/14 10:09:08;;;;;;;0.93;0.93;;;9.00;99.90;;;;;;5030200;28;20041;-75
2022/02/14 10:11:36;;;;;;;4.03;1.52;;;8.90;99.90;;;;;;5028365;28;20072;-75
2022/02/14 10:14:32;;;;;;;1.15;1.05;;;8.90;99.90;;;;;;5027077;28;20127;-75
2022/02/14 10:17:06;;;;;;;1.63;1.52;;;8.90;99.90;;;;;;5015601;28;20056;-76
2022/02/14 10:19:54;;;;;;;4.43;1.58;;;8.90;99.90;;;;;;5046854;28;20053;-75
2022/02/14 10:22:20;;;;;;;4.07;1.40;;;9.00;99.90;;;;;;5026392;28;20411;-75
2022/02/14 10:24:46;;;;;;;4.05;1.20;;;9.00;99.90;;;;;;5048205;28;20044;-75
2022/02/14 10:27:13;;;;;;;2.13;1.13;;;9.10;99.90;;;;;;5046704;28;20443;-76
2022/02/14 10:29:41;;;;;;;2.33;1.50;;;9.20;99.90;;;;;;5014041;28;20484;-75
2022/02/14 10:32:24;;;;;;;2.28;1.00;;;9.20;99.90;;;;;;5029304;28;20040;-76
2022/02/14 10:34:58;;;;;;;4.00;1.70;;;9.30;99.90;;;;;;5027982;28;20063;-76
2022/02/14 10:37:41;;;;;;;1.58;1.20;;;9.30;99.90;;;;;;5027589;28;20135;-75
2022/02/14 10:40:24;;;;;;;3.10;1.60;;;9.30;99.90;;;;;;5046709;28;20061;-76
2022/02/14 10:42:50;;;;;;;1.65;1.15;;;9.30;99.90;;;;;;5031166;28;20372;-75
2022/02/14 10:45:16;;;;;;;1.80;1.45;;;9.40;99.90;;;;;;5021320;28;20559;-75
2022/02/14 10:47:46;;;;;;;2.13;1.65;;;9.40;99.90;;;;;;5038041;28;20131;-76
2022/02/14 10:50:23;;;;;;;8.40;1.63;;;9.60;99.90;;;;;;5032161;28;20048;-76
2022/02/14 10:52:55;;;;;;;1.25;1.00;;;9.60;99.90;;;;;;5013723;28;20127;-76
2022/02/14 10:55:33;;;;;;;4.53;1.67;;;9.80;99.90;;;;;;5031583;28;20037;-76
2022/02/14 10:58:01;;;;;;;3.58;1.02;;;10.00;99.90;;;;;;5031637;28;20131;-76
2022/02/14 11:00:35;;;;;;;3.45;1.52;;;10.10;99.90;;;;;;5031853;28;20549;-76
2022/02/14 11:03:06;;;;;;;1.95;1.27;;;10.20;99.90;;;;;;5045254;28;20047;-76
2022/02/14 11:05:33;;;;;;;3.83;1.35;;;10.20;99.90;;;;;;5049644;28;20119;-76
2022/02/14 11:08:03;;;;;;;1.17;1.08;;;10.20;99.90;;;;;;5052076;28;20386;-77
2022/02/14 11:10:29;;;;;;;2.22;1.10;;;10.20;99.90;;;;;;5019612;28;20503;-77
2022/02/14 11:12:57;;;;;;;6.28;1.50;;;10.20;99.90;;;;;;5031381;28;20044;-77
2022/02/14 11:15:27;;;;;;;5.60;1.25;;;10.10;99.90;;;;;;5031232;28;20434;-77
2022/02/14 11:17:54;;;;;;;;;;;10.10;99.90;;;;;;5014157;28;20454;-77
2022/02/14 11:20:20;;;;;;;5.03;1.02;;;9.90;99.90;;;;;;5040053;28;19924;-77
2022/02/14 11:22:50;;;;;;;2.00;1.30;;;9.80;99.90;;;;;;5033095;28;20041;-77
2022/02/14 11:25:28;;;;;;;;;;;9.80;99.90;;;;;;5031446;28;20128;-78
2022/02/14 11:28:26;;;;;;;3.67;1.35;;;9.70;99.90;;;;;;5014030;28;19927;-77
2022/02/14 11:31:17;;;;;;;3.47;1.40;;;9.80;99.90;;;;;;4989388;28;20079;-77
2022/02/14 11:33:58;;;;;;;0.95;0.85;;;9.90;99.90;;;;;;5058922;28;20064;-77
2022/02/14 11:36:29;;;;;;;2.88;1.38;;;10.00;99.90;;;;;;5017469;28;20526;-77
2022/02/14 11:39:04;;;;;;;3.65;1.13;;;10.00;99.90;;;;;;5032247;28;20459;-77
2022/02/14 11:41:40;;;;;;;3.75;1.23;;;10.10;99.90;;;;;;5035494;28;20052;-78
2022/02/14 11:44:16;;;;;;;1.70;1.10;;;10.10;99.90;;;;;;5029851;28;20045;-77
2022/02/14 11:46:43;;;;;;;2.22;1.10;;;10.10;99.90;;;;;;5044617;28;20037;-77
2022/02/14 11:49:11;;;;;;;2.80;1.30;;;10.10;99.90;;;;;;5022818;28;20242;-77
2022/02/14 11:51:38;;;;;;;4.20;1.25;;;10.20;99.90;;;;;;5021444;28;20116;-78
2022/02/14 11:54:05;;;;;;;3.72;1.38;;;10.10;99.90;;;;;;5032573;28;20048;-78
2022/02/14 11:56:32;;;;;;;4.03;1.42;;;10.10;99.90;;;;;;5032612;28;20536;-77
2022/02/14 11:59:11;;;;;;;1.65;1.45;;;10.10;99.90;;;;;;5026555;28;20041;-77
2022/02/14 12:02:01;;;;;;;2.95;1.10;;;10.10;99.90;;;;;;5037377;28;20037;-78
2022/02/14 12:04:40;;;;;;;7.38;1.17;;;10.00;99.90;;;;;;5035622;28;20037;-78
2022/02/14 12:07:15;;;;;;;2.08;1.08;;;10.00;99.90;;;;;;5030777;28;20124;-78
2022/02/14 12:10:24;;;;;;;2.67;1.60;;;9.90;99.90;;;;;;5029165;28;20040;-77
2022/02/14 12:12:54;;;;;;;2.33;1.23;;;9.90;99.90;;;;;;5027064;28;20066;-78
2022/02/14 12:20:39;;;;;;;1.75;1.13;;;10.00;99.90;;;;;;5041828;28;20037;-78
2022/02/14 12:23:06;;;;;;;1.38;1.27;;;9.90;99.90;;;;;;5025132;28;20410;-77
2022/02/14 12:25:38;;;;;;;4.05;1.40;;;10.00;99.90;;;;;;5029509;28;20045;-78
2022/02/14 12:28:08;;;;;;;3.63;1.20;;;10.00;99.90;;;;;;5028566;28;20048;-78
2022/02/14 12:30:34;;;;;;;3.85;1.70;;;9.90;99.90;;;;;;5040411;28;20806;-78
2022/02/14 12:33:00;;;;;;;3.92;1.73;;;9.90;99.90;;;;;;5043029;28;20502;-78
2022/02/14 12:35:29;;;;;;;3.08;1.52;;;9.80;99.90;;;;;;5041653;28;20056;-79
2022/02/14 12:37:56;;;;;;;4.38;1.90;;;9.80;99.90;;;;;;5048970;28;20561;-78
2022/02/14 12:40:22;;;;;;;1.83;1.00;;;9.80;99.90;;;;;;5047302;28;20261;-80
2022/02/14 12:42:48;;;;;;;3.35;1.58;;;9.70;99.90;;;;;;5049608;28;20053;-79
2022/02/14 12:45:15;;;;;;;4.13;1.75;;;9.70;99.90;;;;;;5014904;28;20427;-79
2022/02/14 12:47:42;;;;;;;5.75;1.55;;;9.70;99.90;;;;;;5049157;28;20052;-78
2022/02/14 12:50:17;;;;;;;5.90;1.60;;;9.80;99.90;;;;;;5031774;28;20048;-79
2022/02/14 12:52:47;;;;;;;2.08;1.45;;;9.90;99.90;;;;;;5048519;28;20071;-79
2022/02/14 12:55:14;;;;;;;4.28;1.50;;;9.90;99.90;;;;;;5032616;28;20040;-79
2022/02/14 12:57:50;;;;;;;4.53;1.48;;;10.00;99.90;;;;;;5029208;28;20110;-79
2022/02/14 13:00:41;;;;;;;3.92;1.00;;;10.10;99.90;;;;;;5049302;28;20082;-79
2022/02/14 13:03:13;;;;;;;4.32;1.80;;;10.10;99.90;;;;;;5044426;28;20264;-79
2022/02/14 13:05:39;;;;;;;4.78;1.30;;;10.00;99.90;;;;;;5048166;28;20160;-79